sensor_id;sensor_type;location;lat;lon;timestamp;temperature;humidity
60717;DHT22;46566;52.700;6.192;2023-08-30T00:00:55;14.40;99.90
60717;DHT22;46566;52.700;6.192;2023-08-30T00:03:21;14.40;99.90
60717;DHT22;46566;52.700;6.192;2023-08-30T00:05:47;14.40;99.90
60717;DHT22;46566;52.700;6.192;2023-08-30T00:08:13;14.40;99.90
60717;DHT22;46566;52.700;6.192;2023-08-30T00:10:44;14.40;99.90
60717;DHT22;46566;52.700;6.192;2023-08-30T00:13:10;14.30;99.90
60717;DHT22;46566;52.700;6.192;2023-08-30T00:15:36;14.30;99.90
60717;DHT22;46566;52.700;6.192;2023-08-30T00:18:02;14.20;99.90
60717;DHT22;46566;52.700;6.192;2023-08-30T00:20:29;14.20;99.90
60717;DHT22;46566;52.700;6.192;2023-08-30T00:22:55;14.20;99.90
60717;DHT22;46566;52.700;6.192;2023-08-30T00:25:21;14.10;99.90
60717;DHT22;46566;52.700;6.192;2023-08-30T00:27:47;14.10;99.90
60717;DHT22;46566;52.700;6.192;2023-08-30T00:30:13;14.10;99.90
60717;DHT22;46566;52.700;6.192;2023-08-30T00:32:39;14.10;99.90
60717;DHT22;46566;52.700;6.192;2023-08-30T00:35:06;14.10;99.90
60717;DHT22;46566;52.700;6.192;2023-08-30T00:37:32;14.00;99.90
60717;DHT22;46566;52.700;6.192;2023-08-30T00:39:58;14.00;99.90
60717;DHT22;46566;52.700;6.192;2023-08-30T00:42:26;14.00;99.90
60717;DHT22;46566;52.700;6.192;2023-08-30T00:44:53;14.00;99.90
60717;DHT22;46566;52.700;6.192;2023-08-30T00:47:19;13.90;99.90
60717;DHT22;46566;52.700;6.192;2023-08-30T00:49:45;13.90;99.90
60717;DHT22;46566;52.700;6.192;2023-08-30T00:52:11;13.80;99.90
60717;DHT22;46566;52.700;6.192;2023-08-30T00:54:39;13.80;99.90
60717;DHT22;46566;52.700;6.192;2023-08-30T00:57:05;13.80;99.90
60717;DHT22;46566;52.700;6.192;2023-08-30T00:59:33;13.70;99.90
60717;DHT22;46566;52.700;6.192;2023-08-30T01:02:00;13.60;99.90
60717;DHT22;46566;52.700;6.192;2023-08-30T01:04:29;13.60;99.90
60717;DHT22;46566;52.700;6.192;2023-08-30T01:06:55;13.60;99.90
60717;DHT22;46566;52.700;6.192;2023-08-30T01:09:22;13.50;99.90
60717;DHT22;46566;52.700;6.192;2023-08-30T01:12:17;13.50;99.90
60717;DHT22;46566;52.700;6.192;2023-08-30T01:14:53;13.50;99.90
60717;DHT22;46566;52.700;6.192;2023-08-30T01:17:21;13.50;99.90
60717;DHT22;46566;52.700;6.192;2023-08-30T01:19:55;13.60;99.90
60717;DHT22;46566;52.700;6.192;2023-08-30T01:28:27;13.60;99.90
60717;DHT22;46566;52.700;6.192;2023-08-30T01:30:55;13.70;99.90
60717;DHT22;46566;52.700;6.192;2023-08-30T01:33:24;13.70;99.90
60717;DHT22;46566;52.700;6.192;2023-08-30T01:35:57;13.70;99.90
60717;DHT22;46566;52.700;6.192;2023-08-30T01:38:29;13.70;99.90
60717;DHT22;46566;52.700;6.192;2023-08-30T01:40:58;13.80;99.90
60717;DHT22;46566;52.700;6.192;2023-08-30T01:43:26;13.80;99.90
60717;DHT22;46566;52.700;6.192;2023-08-30T01:45:55;13.80;99.90
60717;DHT22;46566;52.700;6.192;2023-08-30T01:48:26;13.80;99.90
60717;DHT22;46566;52.700;6.192;2023-08-30T01:50:54;13.80;99.90
60717;DHT22;46566;52.700;6.192;2023-08-30T01:53:24;13.80;99.90
60717;DHT22;46566;52.700;6.192;2023-08-30T01:55:52;13.90;99.90
60717;DHT22;46566;52.700;6.192;2023-08-30T01:58:19;13.80;99.90
60717;DHT22;46566;52.700;6.192;2023-08-30T02:00:45;13.80;99.90
60717;DHT22;46566;52.700;6.192;2023-08-30T02:03:13;13.80;99.90
60717;DHT22;46566;52.700;6.192;2023-08-30T02:05:52;13.80;99.90
60717;DHT22;46566;52.700;6.192;2023-08-30T02:08:26;13.80;99.90
60717;DHT22;46566;52.700;6.192;2023-08-30T02:10:56;13.70;99.90
60717;DHT22;46566;52.700;6.192;2023-08-30T02:13:25;13.70;99.90
60717;DHT22;46566;52.700;6.192;2023-08-30T02:15:55;13.70;99.90
60717;DHT22;46566;52.700;6.192;2023-08-30T02:18:23;13.60;99.90
60717;DHT22;46566;52.700;6.192;2023-08-30T02:20:53;13.60;99.90
60717;DHT22;46566;52.700;6.192;2023-08-30T02:23:23;13.50;99.90
60717;DHT22;46566;52.700;6.192;2023-08-30T02:25:54;13.50;99.90
60717;DHT22;46566;52.700;6.192;2023-08-30T02:28:21;13.50;99.90
60717;DHT22;46566;52.700;6.192;2023-08-30T02:30:53;13.50;99.90
60717;DHT22;46566;52.700;6.192;2023-08-30T02:33:19;13.40;99.90
60717;DHT22;46566;52.700;6.192;2023-08-30T02:35:45;13.40;99.90
60717;DHT22;46566;52.700;6.192;2023-08-30T02:38:12;13.40;99.90
60717;DHT22;46566;52.700;6.192;2023-08-30T02:40:38;13.30;99.90
60717;DHT22;46566;52.700;6.192;2023-08-30T02:43:04;13.30;99.90
60717;DHT22;46566;52.700;6.192;2023-08-30T02:45:30;13.30;99.90
60717;DHT22;46566;52.700;6.192;2023-08-30T02:47:56;13.30;99.90
60717;DHT22;46566;52.700;6.192;2023-08-30T02:50:24;13.30;99.90
60717;DHT22;46566;52.700;6.192;2023-08-30T02:52:50;13.30;99.90
60717;DHT22;46566;52.700;6.192;2023-08-30T02:55:19;13.30;99.90
60717;DHT22;46566;52.700;6.192;2023-08-30T02:57:45;13.30;99.90
60717;DHT22;46566;52.700;6.192;2023-08-30T03:00:12;13.30;99.90
60717;DHT22;46566;52.700;6.192;2023-08-30T03:02:44;13.30;99.90
60717;DHT22;46566;52.700;6.192;2023-08-30T03:05:12;13.30;99.90
60717;DHT22;46566;52.700;6.192;2023-08-30T03:07:38;13.30;99.90
60717;DHT22;46566;52.700;6.192;2023-08-30T03:10:06;13.30;99.90
60717;DHT22;46566;52.700;6.192;2023-08-30T03:12:32;13.30;99.90
60717;DHT22;46566;52.700;6.192;2023-08-30T03:15:00;13.30;99.90
60717;DHT22;46566;52.700;6.192;2023-08-30T03:17:27;13.30;99.90
60717;DHT22;46566;52.700;6.192;2023-08-30T03:19:53;13.30;99.90
60717;DHT22;46566;52.700;6.192;2023-08-30T03:22:20;13.30;99.90
60717;DHT22;46566;52.700;6.192;2023-08-30T03:24:48;13.30;99.90
60717;DHT22;46566;52.700;6.192;2023-08-30T03:27:18;13.30;99.90
60717;DHT22;46566;52.700;6.192;2023-08-30T03:29:45;13.40;99.90
60717;DHT22;46566;52.700;6.192;2023-08-30T03:32:15;13.40;99.90
60717;DHT22;46566;52.700;6.192;2023-08-30T03:34:45;13.40;99.90
60717;DHT22;46566;52.700;6.192;2023-08-30T03:37:13;13.40;99.90
60717;DHT22;46566;52.700;6.192;2023-08-30T03:39:39;13.40;99.90
60717;DHT22;46566;52.700;6.192;2023-08-30T03:42:05;13.40;99.90
60717;DHT22;46566;52.700;6.192;2023-08-30T03:44:31;13.40;99.90
60717;DHT22;46566;52.700;6.192;2023-08-30T03:46:57;13.40;99.90
60717;DHT22;46566;52.700;6.192;2023-08-30T03:49:23;13.50;99.90
60717;DHT22;46566;52.700;6.192;2023-08-30T03:51:49;13.50;99.90
60717;DHT22;46566;52.700;6.192;2023-08-30T03:54:15;13.50;99.90
60717;DHT22;46566;52.700;6.192;2023-08-30T03:56:45;13.50;99.90
60717;DHT22;46566;52.700;6.192;2023-08-30T03:59:12;13.50;99.90
60717;DHT22;46566;52.700;6.192;2023-08-30T04:01:38;13.50;99.90
60717;DHT22;46566;52.700;6.192;2023-08-30T04:04:04;13.50;99.90
60717;DHT22;46566;52.700;6.192;2023-08-30T04:06:31;13.50;99.90
60717;DHT22;46566;52.700;6.192;2023-08-30T04:08:57;13.50;99.90
60717;DHT22;46566;52.700;6.192;2023-08-30T04:11:23;13.60;99.90
60717;DHT22;46566;52.700;6.192;2023-08-30T04:13:49;13.60;99.90
60717;DHT22;46566;52.700;6.192;2023-08-30T04:16:15;13.60;99.90
60717;DHT22;46566;52.700;6.192;2023-08-30T04:18:41;13.60;99.90
60717;DHT22;46566;52.700;6.192;2023-08-30T04:21:07;13.60;99.90
60717;DHT22;46566;52.700;6.192;2023-08-30T04:23:35;13.60;99.90
60717;DHT22;46566;52.700;6.192;2023-08-30T04:26:01;13.70;99.90
60717;DHT22;46566;52.700;6.192;2023-08-30T04:28:28;13.70;99.90
60717;DHT22;46566;52.700;6.192;2023-08-30T04:30:55;13.70;99.90
60717;DHT22;46566;52.700;6.192;2023-08-30T04:33:22;13.70;99.90
60717;DHT22;46566;52.700;6.192;2023-08-30T04:35:51;13.70;99.90
60717;DHT22;46566;52.700;6.192;2023-08-30T04:38:17;13.70;99.90
60717;DHT22;46566;52.700;6.192;2023-08-30T04:40:44;13.70;99.90
60717;DHT22;46566;52.700;6.192;2023-08-30T04:43:12;13.70;99.90
60717;DHT22;46566;52.700;6.192;2023-08-30T04:45:39;13.70;99.90
60717;DHT22;46566;52.700;6.192;2023-08-30T04:48:08;13.70;99.90
60717;DHT22;46566;52.700;6.192;2023-08-30T04:50:38;13.70;99.90
60717;DHT22;46566;52.700;6.192;2023-08-30T04:53:04;13.70;99.90
60717;DHT22;46566;52.700;6.192;2023-08-30T04:55:31;13.70;99.90
60717;DHT22;46566;52.700;6.192;2023-08-30T04:57:59;13.80;99.90
60717;DHT22;46566;52.700;6.192;2023-08-30T05:00:28;13.80;99.90
60717;DHT22;46566;52.700;6.192;2023-08-30T05:02:54;13.80;99.90
60717;DHT22;46566;52.700;6.192;2023-08-30T05:05:20;13.80;99.90
60717;DHT22;46566;52.700;6.192;2023-08-30T05:07:46;13.80;99.90
60717;DHT22;46566;52.700;6.192;2023-08-30T05:10:12;13.80;99.90
60717;DHT22;46566;52.700;6.192;2023-08-30T05:12:38;13.80;99.90
60717;DHT22;46566;52.700;6.192;2023-08-30T05:15:05;13.80;99.90
60717;DHT22;46566;52.700;6.192;2023-08-30T05:17:34;13.80;99.90
60717;DHT22;46566;52.700;6.192;2023-08-30T05:20:01;13.80;99.90
60717;DHT22;46566;52.700;6.192;2023-08-30T05:22:27;13.80;99.90
60717;DHT22;46566;52.700;6.192;2023-08-30T05:24:53;13.80;99.90
60717;DHT22;46566;52.700;6.192;2023-08-30T05:27:19;13.90;99.90
60717;DHT22;46566;52.700;6.192;2023-08-30T05:29:45;13.90;99.90
60717;DHT22;46566;52.700;6.192;2023-08-30T05:32:11;13.90;99.90
60717;DHT22;46566;52.700;6.192;2023-08-30T05:34:40;13.90;99.90
60717;DHT22;46566;52.700;6.192;2023-08-30T05:37:14;13.90;99.90
60717;DHT22;46566;52.700;6.192;2023-08-30T05:40:04;13.90;99.90
60717;DHT22;46566;52.700;6.192;2023-08-30T05:42:30;13.90;99.90
60717;DHT22;46566;52.700;6.192;2023-08-30T05:44:56;14.00;99.90
60717;DHT22;46566;52.700;6.192;2023-08-30T05:47:23;13.90;99.90
60717;DHT22;46566;52.700;6.192;2023-08-30T05:49:49;14.00;99.90
60717;DHT22;46566;52.700;6.192;2023-08-30T05:52:15;14.00;99.90
60717;DHT22;46566;52.700;6.192;2023-08-30T05:54:42;14.00;99.90
60717;DHT22;46566;52.700;6.192;2023-08-30T05:57:09;14.10;99.90
60717;DHT22;46566;52.700;6.192;2023-08-30T05:59:35;14.10;99.90
60717;DHT22;46566;52.700;6.192;2023-08-30T06:02:02;14.10;99.90
60717;DHT22;46566;52.700;6.192;2023-08-30T06:04:27;14.20;99.90
60717;DHT22;46566;52.700;6.192;2023-08-30T06:06:53;14.20;99.90
60717;DHT22;46566;52.700;6.192;2023-08-30T06:09:19;14.20;99.90
60717;DHT22;46566;52.700;6.192;2023-08-30T06:11:45;14.20;99.90
60717;DHT22;46566;52.700;6.192;2023-08-30T06:14:10;14.20;99.90
60717;DHT22;46566;52.700;6.192;2023-08-30T06:16:36;14.30;99.90
60717;DHT22;46566;52.700;6.192;2023-08-30T06:19:02;14.30;99.90
60717;DHT22;46566;52.700;6.192;2023-08-30T06:21:28;14.30;99.90
60717;DHT22;46566;52.700;6.192;2023-08-30T06:23:54;14.30;99.90
60717;DHT22;46566;52.700;6.192;2023-08-30T06:26:19;14.40;99.90
60717;DHT22;46566;52.700;6.192;2023-08-30T06:28:46;14.40;99.90
60717;DHT22;46566;52.700;6.192;2023-08-30T06:31:12;14.40;99.90
60717;DHT22;46566;52.700;6.192;2023-08-30T06:33:41;14.40;99.90
60717;DHT22;46566;52.700;6.192;2023-08-30T06:36:08;14.40;99.90
60717;DHT22;46566;52.700;6.192;2023-08-30T06:38:37;14.40;99.90
60717;DHT22;46566;52.700;6.192;2023-08-30T06:41:03;14.40;99.90
60717;DHT22;46566;52.700;6.192;2023-08-30T06:43:29;14.40;99.90
60717;DHT22;46566;52.700;6.192;2023-08-30T06:45:58;14.50;99.90
60717;DHT22;46566;52.700;6.192;2023-08-30T06:48:25;14.40;99.90
60717;DHT22;46566;52.700;6.192;2023-08-30T06:50:50;14.50;99.90
60717;DHT22;46566;52.700;6.192;2023-08-30T06:53:16;14.50;99.90
60717;DHT22;46566;52.700;6.192;2023-08-30T06:55:42;14.50;99.90
60717;DHT22;46566;52.700;6.192;2023-08-30T06:58:08;14.50;99.90
60717;DHT22;46566;52.700;6.192;2023-08-30T07:00:34;14.50;99.90
60717;DHT22;46566;52.700;6.192;2023-08-30T07:03:00;14.60;99.90
60717;DHT22;46566;52.700;6.192;2023-08-30T07:05:25;14.70;99.90
60717;DHT22;46566;52.700;6.192;2023-08-30T07:07:51;14.70;99.90
60717;DHT22;46566;52.700;6.192;2023-08-30T07:10:17;14.80;99.90
60717;DHT22;46566;52.700;6.192;2023-08-30T07:12:44;14.90;99.90
60717;DHT22;46566;52.700;6.192;2023-08-30T07:15:10;15.00;99.90
60717;DHT22;46566;52.700;6.192;2023-08-30T07:17:36;15.10;99.90
60717;DHT22;46566;52.700;6.192;2023-08-30T07:20:02;15.20;99.90
60717;DHT22;46566;52.700;6.192;2023-08-30T07:22:30;15.30;99.90
60717;DHT22;46566;52.700;6.192;2023-08-30T07:24:56;15.40;99.90
60717;DHT22;46566;52.700;6.192;2023-08-30T07:27:22;15.40;99.90
60717;DHT22;46566;52.700;6.192;2023-08-30T07:29:48;15.40;99.90
60717;DHT22;46566;52.700;6.192;2023-08-30T07:32:14;15.30;99.90
60717;DHT22;46566;52.700;6.192;2023-08-30T07:34:40;15.30;99.90
60717;DHT22;46566;52.700;6.192;2023-08-30T07:37:19;15.30;99.90
60717;DHT22;46566;52.700;6.192;2023-08-30T07:39:47;15.20;99.90
60717;DHT22;46566;52.700;6.192;2023-08-30T07:44:47;15.20;99.90
60717;DHT22;46566;52.700;6.192;2023-08-30T07:49:53;15.20;99.90
60717;DHT22;46566;52.700;6.192;2023-08-30T07:52:21;15.20;99.90
60717;DHT22;46566;52.700;6.192;2023-08-30T07:54:47;15.20;99.90
60717;DHT22;46566;52.700;6.192;2023-08-30T07:57:13;15.20;99.90
60717;DHT22;46566;52.700;6.192;2023-08-30T07:59:39;15.10;99.90
60717;DHT22;46566;52.700;6.192;2023-08-30T08:02:05;15.10;99.90
60717;DHT22;46566;52.700;6.192;2023-08-30T08:04:33;15.10;99.90
60717;DHT22;46566;52.700;6.192;2023-08-30T08:06:59;15.10;99.90
60717;DHT22;46566;52.700;6.192;2023-08-30T08:09:25;15.10;99.90
60717;DHT22;46566;52.700;6.192;2023-08-30T08:11:51;15.10;99.90
60717;DHT22;46566;52.700;6.192;2023-08-30T08:14:17;15.10;99.90
60717;DHT22;46566;52.700;6.192;2023-08-30T08:16:42;15.10;99.90
60717;DHT22;46566;52.700;6.192;2023-08-30T08:19:11;15.10;99.90
60717;DHT22;46566;52.700;6.192;2023-08-30T08:21:38;15.10;99.90
60717;DHT22;46566;52.700;6.192;2023-08-30T08:24:04;15.00;99.90
60717;DHT22;46566;52.700;6.192;2023-08-30T08:26:30;15.00;99.90
60717;DHT22;46566;52.700;6.192;2023-08-30T08:28:56;14.90;99.90
60717;DHT22;46566;52.700;6.192;2023-08-30T08:42:49;14.60;99.90
60717;DHT22;46566;52.700;6.192;2023-08-30T08:45:17;14.60;99.90
60717;DHT22;46566;52.700;6.192;2023-08-30T08:47:44;14.60;99.90
60717;DHT22;46566;52.700;6.192;2023-08-30T08:50:10;14.50;99.90
60717;DHT22;46566;52.700;6.192;2023-08-30T08:55:29;14.50;99.90
60717;DHT22;46566;52.700;6.192;2023-08-30T08:57:58;14.50;99.90
60717;DHT22;46566;52.700;6.192;2023-08-30T09:00:25;14.40;99.90
60717;DHT22;46566;52.700;6.192;2023-08-30T09:02:53;14.40;99.90
60717;DHT22;46566;52.700;6.192;2023-08-30T09:05:20;14.30;99.90
60717;DHT22;46566;52.700;6.192;2023-08-30T09:07:45;14.30;99.90
60717;DHT22;46566;52.700;6.192;2023-08-30T09:10:12;14.30;99.90
60717;DHT22;46566;52.700;6.192;2023-08-30T09:12:38;14.20;99.90
60717;DHT22;46566;52.700;6.192;2023-08-30T09:15:04;14.20;99.90
60717;DHT22;46566;52.700;6.192;2023-08-30T09:17:37;14.20;99.90
60717;DHT22;46566;52.700;6.192;2023-08-30T09:20:11;14.30;99.90
60717;DHT22;46566;52.700;6.192;2023-08-30T09:22:42;14.30;99.90
60717;DHT22;46566;52.700;6.192;2023-08-30T09:25:09;14.40;99.90
60717;DHT22;46566;52.700;6.192;2023-08-30T09:27:36;14.40;99.90
60717;DHT22;46566;52.700;6.192;2023-08-30T09:30:05;14.40;99.90
60717;DHT22;46566;52.700;6.192;2023-08-30T09:32:31;14.40;99.90
60717;DHT22;46566;52.700;6.192;2023-08-30T09:34:56;14.40;99.90
60717;DHT22;46566;52.700;6.192;2023-08-30T09:37:22;14.50;99.90
60717;DHT22;46566;52.700;6.192;2023-08-30T09:39:51;14.50;99.90
60717;DHT22;46566;52.700;6.192;2023-08-30T09:42:17;14.60;99.90
60717;DHT22;46566;52.700;6.192;2023-08-30T09:44:43;14.70;99.90
60717;DHT22;46566;52.700;6.192;2023-08-30T09:47:09;14.80;99.90
60717;DHT22;46566;52.700;6.192;2023-08-30T09:49:45;14.80;99.90
60717;DHT22;46566;52.700;6.192;2023-08-30T09:52:15;14.90;99.90
60717;DHT22;46566;52.700;6.192;2023-08-30T09:54:41;14.90;99.90
60717;DHT22;46566;52.700;6.192;2023-08-30T09:57:10;14.90;99.90
60717;DHT22;46566;52.700;6.192;2023-08-30T09:59:37;14.90;99.90
60717;DHT22;46566;52.700;6.192;2023-08-30T10:02:05;14.90;99.90
60717;DHT22;46566;52.700;6.192;2023-08-30T10:04:32;14.80;99.90
60717;DHT22;46566;52.700;6.192;2023-08-30T10:06:58;14.80;99.90
60717;DHT22;46566;52.700;6.192;2023-08-30T10:09:25;14.70;99.90
60717;DHT22;46566;52.700;6.192;2023-08-30T10:11:51;14.70;99.90
60717;DHT22;46566;52.700;6.192;2023-08-30T10:14:17;14.70;99.90
60717;DHT22;46566;52.700;6.192;2023-08-30T10:16:44;14.70;99.90
60717;DHT22;46566;52.700;6.192;2023-08-30T10:19:24;14.70;99.90
60717;DHT22;46566;52.700;6.192;2023-08-30T10:22:01;14.60;99.90
60717;DHT22;46566;52.700;6.192;2023-08-30T10:24:37;14.60;99.90
60717;DHT22;46566;52.700;6.192;2023-08-30T10:27:07;14.60;99.90
60717;DHT22;46566;52.700;6.192;2023-08-30T10:29:35;14.50;99.90
60717;DHT22;46566;52.700;6.192;2023-08-30T10:32:05;14.50;99.90
60717;DHT22;46566;52.700;6.192;2023-08-30T10:34:33;14.50;99.90
60717;DHT22;46566;52.700;6.192;2023-08-30T10:37:00;14.50;99.90
60717;DHT22;46566;52.700;6.192;2023-08-30T10:42:00;14.50;99.90
60717;DHT22;46566;52.700;6.192;2023-08-30T10:44:25;14.50;99.90
60717;DHT22;46566;52.700;6.192;2023-08-30T10:46:55;14.50;99.90
60717;DHT22;46566;52.700;6.192;2023-08-30T10:49:21;14.50;99.90
60717;DHT22;46566;52.700;6.192;2023-08-30T10:51:57;14.50;99.90
60717;DHT22;46566;52.700;6.192;2023-08-30T10:54:24;14.50;99.90
60717;DHT22;46566;52.700;6.192;2023-08-30T10:56:58;14.50;99.90
60717;DHT22;46566;52.700;6.192;2023-08-30T10:59:26;14.50;99.90
60717;DHT22;46566;52.700;6.192;2023-08-30T11:01:53;14.50;99.90
60717;DHT22;46566;52.700;6.192;2023-08-30T11:04:19;14.50;99.90
60717;DHT22;46566;52.700;6.192;2023-08-30T11:06:47;14.50;99.90
60717;DHT22;46566;52.700;6.192;2023-08-30T11:09:17;14.50;99.90
60717;DHT22;46566;52.700;6.192;2023-08-30T11:11:44;14.40;99.90
60717;DHT22;46566;52.700;6.192;2023-08-30T11:14:11;14.40;99.90
60717;DHT22;46566;52.700;6.192;2023-08-30T11:16:38;14.40;99.90
60717;DHT22;46566;52.700;6.192;2023-08-30T11:19:05;14.40;99.90
60717;DHT22;46566;52.700;6.192;2023-08-30T11:21:32;14.40;99.90
60717;DHT22;46566;52.700;6.192;2023-08-30T11:23:59;14.30;99.90
60717;DHT22;46566;52.700;6.192;2023-08-30T11:26:25;14.30;99.90
60717;DHT22;46566;52.700;6.192;2023-08-30T11:28:51;14.30;99.90
60717;DHT22;46566;52.700;6.192;2023-08-30T11:31:22;14.40;99.90
60717;DHT22;46566;52.700;6.192;2023-08-30T11:33:56;14.40;99.90
60717;DHT22;46566;52.700;6.192;2023-08-30T11:36:24;14.40;99.90
60717;DHT22;46566;52.700;6.192;2023-08-30T11:38:52;14.40;99.90
60717;DHT22;46566;52.700;6.192;2023-08-30T11:41:20;14.40;99.90
60717;DHT22;46566;52.700;6.192;2023-08-30T11:43:47;14.40;99.90
60717;DHT22;46566;52.700;6.192;2023-08-30T11:46:13;14.40;99.90
60717;DHT22;46566;52.700;6.192;2023-08-30T11:48:40;14.40;99.90
60717;DHT22;46566;52.700;6.192;2023-08-30T11:51:07;14.40;99.90
60717;DHT22;46566;52.700;6.192;2023-08-30T11:53:34;14.40;99.90
60717;DHT22;46566;52.700;6.192;2023-08-30T11:56:00;14.50;99.90
60717;DHT22;46566;52.700;6.192;2023-08-30T11:58:26;14.50;99.90
60717;DHT22;46566;52.700;6.192;2023-08-30T12:00:53;14.60;99.90
60717;DHT22;46566;52.700;6.192;2023-08-30T12:03:23;14.60;99.90
60717;DHT22;46566;52.700;6.192;2023-08-30T12:05:50;14.60;99.90
60717;DHT22;46566;52.700;6.192;2023-08-30T12:08:20;14.60;99.90
60717;DHT22;46566;52.700;6.192;2023-08-30T12:10:46;14.60;99.90
60717;DHT22;46566;52.700;6.192;2023-08-30T12:13:34;14.60;99.90
60717;DHT22;46566;52.700;6.192;2023-08-30T12:16:01;14.50;99.90
60717;DHT22;46566;52.700;6.192;2023-08-30T12:18:29;14.50;99.90
60717;DHT22;46566;52.700;6.192;2023-08-30T12:21:04;14.50;99.90
60717;DHT22;46566;52.700;6.192;2023-08-30T12:23:31;14.50;99.90
60717;DHT22;46566;52.700;6.192;2023-08-30T12:26:04;14.60;99.90
60717;DHT22;46566;52.700;6.192;2023-08-30T12:28:35;14.60;99.90
60717;DHT22;46566;52.700;6.192;2023-08-30T12:31:01;14.50;99.90
60717;DHT22;46566;52.700;6.192;2023-08-30T12:33:27;14.60;99.90
60717;DHT22;46566;52.700;6.192;2023-08-30T12:35:56;14.60;99.90
60717;DHT22;46566;52.700;6.192;2023-08-30T12:38:23;14.60;99.90
60717;DHT22;46566;52.700;6.192;2023-08-30T12:40:51;14.70;99.90
60717;DHT22;46566;52.700;6.192;2023-08-30T12:43:18;14.70;99.90
60717;DHT22;46566;52.700;6.192;2023-08-30T12:45:44;14.70;99.90
60717;DHT22;46566;52.700;6.192;2023-08-30T12:48:11;14.80;99.90
60717;DHT22;46566;52.700;6.192;2023-08-30T12:50:38;14.80;99.90
60717;DHT22;46566;52.700;6.192;2023-08-30T12:53:04;14.80;99.90
60717;DHT22;46566;52.700;6.192;2023-08-30T12:55:30;14.90;99.90
60717;DHT22;46566;52.700;6.192;2023-08-30T12:57:57;15.00;99.90
60717;DHT22;46566;52.700;6.192;2023-08-30T13:00:23;15.10;99.90
60717;DHT22;46566;52.700;6.192;2023-08-30T13:02:49;15.10;99.90
60717;DHT22;46566;52.700;6.192;2023-08-30T13:05:15;15.10;99.90
60717;DHT22;46566;52.700;6.192;2023-08-30T13:07:41;15.20;99.90
60717;DHT22;46566;52.700;6.192;2023-08-30T13:10:08;15.30;99.90
60717;DHT22;46566;52.700;6.192;2023-08-30T13:12:34;15.30;99.90
60717;DHT22;46566;52.700;6.192;2023-08-30T13:14:59;15.30;99.90
60717;DHT22;46566;52.700;6.192;2023-08-30T13:17:25;15.40;99.90
60717;DHT22;46566;52.700;6.192;2023-08-30T13:19:51;15.40;99.90
60717;DHT22;46566;52.700;6.192;2023-08-30T13:22:16;15.40;99.90
60717;DHT22;46566;52.700;6.192;2023-08-30T13:24:43;15.50;99.90
60717;DHT22;46566;52.700;6.192;2023-08-30T13:27:09;15.60;99.90
60717;DHT22;46566;52.700;6.192;2023-08-30T13:29:36;15.70;99.90
60717;DHT22;46566;52.700;6.192;2023-08-30T13:32:02;15.90;99.90
60717;DHT22;46566;52.700;6.192;2023-08-30T14:11:03;17.50;99.90
60717;DHT22;46566;52.700;6.192;2023-08-30T14:13:31;17.40;99.90
60717;DHT22;46566;52.700;6.192;2023-08-30T14:15:59;17.30;99.90
60717;DHT22;46566;52.700;6.192;2023-08-30T14:18:26;17.40;99.90
60717;DHT22;46566;52.700;6.192;2023-08-30T14:20:55;17.50;99.90
60717;DHT22;46566;52.700;6.192;2023-08-30T14:23:21;17.80;99.90
60717;DHT22;46566;52.700;6.192;2023-08-30T14:25:58;18.00;99.90
60717;DHT22;46566;52.700;6.192;2023-08-30T14:28:25;18.20;99.90
60717;DHT22;46566;52.700;6.192;2023-08-30T14:30:51;18.20;99.90
60717;DHT22;46566;52.700;6.192;2023-08-30T14:33:17;18.30;99.90
60717;DHT22;46566;52.700;6.192;2023-08-30T14:35:43;18.40;99.90
60717;DHT22;46566;52.700;6.192;2023-08-30T14:38:09;18.40;99.90
60717;DHT22;46566;52.700;6.192;2023-08-30T14:40:36;18.40;99.90
60717;DHT22;46566;52.700;6.192;2023-08-30T14:43:04;18.30;99.90
60717;DHT22;46566;52.700;6.192;2023-08-30T14:45:31;18.10;99.90
60717;DHT22;46566;52.700;6.192;2023-08-30T14:47:57;17.90;99.90
60717;DHT22;46566;52.700;6.192;2023-08-30T14:50:23;17.80;99.90
60717;DHT22;46566;52.700;6.192;2023-08-30T14:52:51;17.70;99.90
60717;DHT22;46566;52.700;6.192;2023-08-30T14:55:20;17.60;99.90
60717;DHT22;46566;52.700;6.192;2023-08-30T14:57:46;17.50;99.90
60717;DHT22;46566;52.700;6.192;2023-08-30T15:00:12;17.50;99.90
60717;DHT22;46566;52.700;6.192;2023-08-30T15:02:40;17.40;99.90
60717;DHT22;46566;52.700;6.192;2023-08-30T15:05:06;17.40;99.90
60717;DHT22;46566;52.700;6.192;2023-08-30T15:07:32;17.40;99.90
60717;DHT22;46566;52.700;6.192;2023-08-30T15:09:58;17.40;99.90
60717;DHT22;46566;52.700;6.192;2023-08-30T15:12:24;17.40;99.90
60717;DHT22;46566;52.700;6.192;2023-08-30T15:14:49;17.40;99.90
60717;DHT22;46566;52.700;6.192;2023-08-30T15:17:15;17.50;99.90
60717;DHT22;46566;52.700;6.192;2023-08-30T15:19:42;17.40;99.90
60717;DHT22;46566;52.700;6.192;2023-08-30T15:22:07;17.40;99.90
60717;DHT22;46566;52.700;6.192;2023-08-30T15:24:33;17.30;99.90
60717;DHT22;46566;52.700;6.192;2023-08-30T15:26:59;17.30;99.90
60717;DHT22;46566;52.700;6.192;2023-08-30T15:29:25;17.20;99.90
60717;DHT22;46566;52.700;6.192;2023-08-30T15:31:50;17.20;99.90
60717;DHT22;46566;52.700;6.192;2023-08-30T15:34:18;17.10;99.90
60717;DHT22;46566;52.700;6.192;2023-08-30T15:36:44;17.10;99.90
60717;DHT22;46566;52.700;6.192;2023-08-30T15:39:13;17.10;99.90
60717;DHT22;46566;52.700;6.192;2023-08-30T15:41:40;17.00;99.90
60717;DHT22;46566;52.700;6.192;2023-08-30T15:44:06;17.00;99.90
60717;DHT22;46566;52.700;6.192;2023-08-30T15:46:32;17.00;99.90
60717;DHT22;46566;52.700;6.192;2023-08-30T15:48:57;17.00;99.90
60717;DHT22;46566;52.700;6.192;2023-08-30T15:51:23;17.00;99.90
60717;DHT22;46566;52.700;6.192;2023-08-30T15:53:50;17.00;99.90
60717;DHT22;46566;52.700;6.192;2023-08-30T15:56:16;17.00;99.90
60717;DHT22;46566;52.700;6.192;2023-08-30T15:58:42;17.00;99.90
60717;DHT22;46566;52.700;6.192;2023-08-30T16:01:07;17.00;99.90
60717;DHT22;46566;52.700;6.192;2023-08-30T16:03:33;17.10;99.90
60717;DHT22;46566;52.700;6.192;2023-08-30T16:06:01;17.10;99.90
60717;DHT22;46566;52.700;6.192;2023-08-30T16:08:27;17.20;99.90
60717;DHT22;46566;52.700;6.192;2023-08-30T16:10:54;17.20;99.90
60717;DHT22;46566;52.700;6.192;2023-08-30T16:13:20;17.20;99.90
60717;DHT22;46566;52.700;6.192;2023-08-30T16:15:46;17.20;99.90
60717;DHT22;46566;52.700;6.192;2023-08-30T16:18:12;17.20;99.90
60717;DHT22;46566;52.700;6.192;2023-08-30T16:20:38;17.20;99.90
60717;DHT22;46566;52.700;6.192;2023-08-30T16:23:04;17.20;99.90
60717;DHT22;46566;52.700;6.192;2023-08-30T16:25:30;17.20;99.90
60717;DHT22;46566;52.700;6.192;2023-08-30T16:27:56;17.20;99.90
60717;DHT22;46566;52.700;6.192;2023-08-30T16:30:21;17.10;99.90
60717;DHT22;46566;52.700;6.192;2023-08-30T16:32:52;17.10;99.90
60717;DHT22;46566;52.700;6.192;2023-08-30T16:35:18;17.10;99.90